• Join FlightAware (Why Join?)
  • Login
  • US Flag 
04:37AM EST


 

Airport Tracker/Info


-or-


 

Live Flight TrackerFlight Track Log ✈ EJA808 ✈ 28-Apr-2013 ✈ KHVN - KIAD

Flight Track Log - Related Links

Times and Time Zones

All times are in EDT time to prevent confusion due to time zone crossing. See the EJA808 flight status page for this flight to view local times or setup timezone preferences in your user account.

Time Position Orientation Groundspeed Altitude Reporting Facility
EDT Latitude Longitude Course Direction KTS MPH feet Rate Location/Type
10:49AM 41.2333 -72.8833 150° Southeast 186 214 1,600  Level New York TRACON
10:51AM 41.1578 -72.8261 150° Southeast 226 260 6,300 2,760 Climbing Boston Center
10:52AM 41.0869 -72.7789 153° Southeast 254 292 9,200 2,100 Climbing Boston Center
10:53AM 41.0100 -72.7261 153° Southeast 285 328 10,500 900 Climbing Boston Center
10:54AM 40.9164 -72.6653 154° Southeast 317 365 11,000 780 Climbing Boston Center
10:55AM 40.8311 -72.6075 153° Southeast 333 383 12,100 1,920 Climbing Boston Center
10:56AM 40.7394 -72.5717 164° South 343 395 14,900 2,820 Climbing Boston Center
10:57AM 40.6747 -72.6564 225° Southwest 283 326 17,800 2,400 Climbing Boston Center
10:58AM 40.6453 -72.7547 248° West 269 310 19,800 2,220 Climbing Boston Center
11:00AM 40.5792 -73.0583 254° West 335 386 25,700 1,740 Climbing New York Center
11:01AM 40.5453 -73.1881 251° West 355 409 26,000 120 Climbing New York Center
11:02AM 40.5133 -73.3208 252° West 375 432 26,000  Level New York Center
11:03AM 40.4769 -73.4586 251° West 388 447 26,000  Level New York Center
11:04AM 40.4447 -73.5936 253° West 393 452 26,000  Level New York Center
11:05AM 40.4081 -73.7283 250° West 393 452 26,000  Level New York Center
11:06AM 40.3714 -73.8575 250° West 398 458 26,000  Level New York Center
11:07AM 40.3364 -73.9922 251° West 398 458 26,000  Level New York Center
11:08AM 40.3017 -74.1211 251° West 398 458 26,000  Level New York Center
11:09AM 40.2664 -74.2553 251° West 398 458 26,000  Level New York Center
11:10AM 40.2311 -74.3869 251° West 388 447 26,000  Level New York Center
11:11AM 40.2039 -74.5242 255° West 388 447 26,000  Level New York Center
11:12AM 40.1975 -74.6594 267° West 388 447 26,000  Level New York Center
11:13AM 40.1908 -74.7978 266° West 383 441 26,000  Level New York Center
11:14AM 40.1881 -74.9308 268° West 383 441 26,000  Level New York Center
11:15AM 40.1833 -75.0689 267° West 383 441 26,000  Level New York Center
11:16AM 40.1764 -75.1936 266° West 383 441 26,000  Level New York Center
11:17AM 40.1714 -75.3292 267° West 383 441 26,000 -420 Level New York Center
11:18AM 40.1664 -75.4592 267° West 377 434 25,200 -1,200 Descending New York Center
11:19AM 40.1608 -75.5919 267° West 377 434 23,600 -1,740 Descending New York Center
11:20AM 40.1514 -75.7217 265° West 367 422 21,800 -1,860 Descending New York Center
11:21AM 40.1439 -75.8514 266° West 367 422 20,000 -900 Descending New York Center
11:22AM 40.1339 -75.9811 264° West 367 422 20,000  Level New York Center
11:23AM 40.0931 -76.1028 246° West 367 422 20,000 -300 Level New York Center
11:24AM 40.0503 -76.2189 244° Southwest 367 422 19,400 -1,080 Descending New York Center
11:25AM 40.0047 -76.3428 244° Southwest 361 415 17,900 -1,260 Descending New York Center
11:26AM 39.9639 -76.4586 245° Southwest 353 406 16,900 -1,080 Descending New York Center
11:28AM 39.9000 -76.6500 247° West 345 397 15,000 -660 Descending Potomac TRACON
11:29AM 39.8500 -76.7833 244° Southwest 343 395 15,000  Level Potomac TRACON
11:30AM 39.8167 -76.8833 247° West 341 392 15,000 -180 Level Potomac TRACON
11:31AM 39.7667 -76.9833 237° Southwest 336 387 14,700 -780 Descending Potomac TRACON
11:32AM 39.7333 -77.0833 247° West 331 381 13,500 -1,500 Descending Potomac TRACON
11:33AM 39.7000 -77.2000 250° West 324 373 11,900 -1,740 Descending Potomac TRACON
11:34AM 39.6500 -77.2833 232° Southwest 308 354 10,200 -1,020 Descending Potomac TRACON
11:35AM 39.6000 -77.3500 226° Southwest 273 314 9,900 -1,080 Descending Potomac TRACON
11:36AM 39.5333 -77.4000 210° Southwest 251 289 8,100 -1,800 Descending Potomac TRACON
11:37AM 39.4667 -77.4333 201° Southwest 255 293 6,400 -1,740 Descending Potomac TRACON
11:38AM 39.4000 -77.4333 180° South 241 277 4,700 -1,260 Descending Potomac TRACON
11:39AM 39.3333 -77.4333 180° South 233 268 3,900 -900 Descending Potomac TRACON
11:40AM 39.2833 -77.4333 180° South 222 255 3,000 -480 Descending Potomac TRACON
11:41AM 39.2167 -77.4333 180° South 232 267 3,000  Level Potomac TRACON
11:42AM 39.1500 -77.4333 180° South 237 273 3,000 -60 Level Potomac TRACON
11:43AM 39.1000 -77.4333 180° South 227 261 2,900 -600 Descending Potomac TRACON
11:44AM 39.0333 -77.4333 180° South 187 215 1,800 -960 Descending Potomac TRACON
11:45AM 38.9833 -77.4333 180° South 133 153 1,000 -840 Descending Potomac TRACON
11:47AM 38.9474 -77.4599 180° South  Level Estimated
11:54AM 38.9474 -77.4599 349° North  Level Estimated
11:55AM 38.9474 -77.4599 349° North  Level Estimated
11:56AM 38.9474 -77.4599 349° North  Level Estimated
11:57AM 38.9474 -77.4599 349° North  Level Estimated